Time;durP1;ratioP1;P1;durP2;ratioP2;P2;SDS_P1;SDS_P2;PMS_P1;PMS_P2;Temp;Humidity;BMP_temperature;BMP_pressure;BME280_temperature;BME280_humidity;BME280_pressure;Samples;Min_cycle;Max_cycle;Signal;HPM_P1;HPM_P2
2023/12/12 00:01:22;;;;;;;2.50;0.90;;;;;;;7.34;100.00;99889.66;5004429;28;20220;-74
2023/12/12 00:03:49;;;;;;;0.80;0.80;;;;;;;7.34;99.75;99890.44;5019461;28;20199;-74
2023/12/12 00:06:17;;;;;;;2.83;1.43;;;;;;;7.32;99.80;99899.72;5021289;28;20219;-71
2023/12/12 00:08:44;;;;;;;1.50;0.90;;;;;;;7.31;100.00;99893.69;5020138;28;20713;-72
2023/12/12 00:11:10;;;;;;;0.87;0.87;;;;;;;7.30;100.00;99900.03;5004250;28;20216;-73
2023/12/12 00:13:36;;;;;;;1.47;0.80;;;;;;;7.28;100.00;99904.06;5021695;28;20303;-74
2023/12/12 00:16:03;;;;;;;3.27;0.83;;;;;;;7.29;99.62;99909.00;5017143;28;20705;-72
2023/12/12 00:18:29;;;;;;;2.17;1.00;;;;;;;7.28;99.49;99911.94;5021591;28;20657;-74
2023/12/12 00:20:55;;;;;;;1.10;1.00;;;;;;;7.27;99.40;99921.69;5017745;28;20999;-73
2023/12/12 00:23:23;;;;;;;2.83;0.70;;;;;;;7.27;99.30;99916.44;5024956;28;20630;-74
2023/12/12 00:25:49;;;;;;;4.07;0.70;;;;;;;7.27;98.84;99928.78;5021863;28;20406;-74
2023/12/12 00:28:16;;;;;;;1.03;0.83;;;;;;;7.27;100.00;99936.66;5016999;28;20730;-73
2023/12/12 00:30:43;;;;;;;1.30;0.80;;;;;;;7.26;100.00;99935.13;5020200;28;20209;-73
2023/12/12 00:33:09;;;;;;;2.10;0.80;;;;;;;7.25;99.22;99941.47;5022826;28;20215;-73
2023/12/12 00:35:36;;;;;;;1.67;0.87;;;;;;;7.25;100.00;99944.88;5022105;28;20200;-74
2023/12/12 00:38:02;;;;;;;0.97;0.90;;;;;;;7.26;98.89;99948.28;5021097;28;20226;-72
2023/12/12 00:40:30;;;;;;;1.47;0.80;;;;;;;7.22;98.94;99942.09;5021381;28;20206;-73
2023/12/12 00:42:56;;;;;;;1.57;0.97;;;;;;;7.21;99.80;99943.19;5022868;28;20192;-73
2023/12/12 00:45:22;;;;;;;0.70;0.57;;;;;;;7.19;99.63;99948.00;5021056;28;20206;-74
2023/12/12 00:47:49;;;;;;;2.63;1.10;;;;;;;7.18;97.89;99962.19;5019131;28;20216;-75
2023/12/12 00:50:16;;;;;;;1.20;0.70;;;;;;;7.16;99.14;99964.38;5021114;28;20555;-74
2023/12/12 00:52:42;;;;;;;1.70;0.90;;;;;;;7.14;98.96;99971.81;5002081;28;20201;-73
2023/12/12 00:55:09;;;;;;;1.63;0.83;;;;;;;7.14;98.71;99974.44;5019627;28;20204;-73
2023/12/12 00:57:37;;;;;;;2.50;0.90;;;;;;;7.12;98.29;99993.13;5018933;28;20220;-75
2023/12/12 01:00:04;;;;;;;2.10;0.83;;;;;;;7.13;99.15;99993.88;5019809;28;20208;-73
2023/12/12 01:02:31;;;;;;;2.40;0.70;;;;;;;7.11;100.00;100002.09;5018042;28;20188;-73
2023/12/12 01:04:57;;;;;;;0.70;0.70;;;;;;;7.10;99.33;99995.28;4999743;28;20369;-73
2023/12/12 01:07:23;;;;;;;1.50;0.77;;;;;;;7.10;99.30;100008.41;5022127;28;20221;-73
2023/12/12 01:09:50;;;;;;;1.80;0.80;;;;;;;7.08;100.00;100015.06;5020906;28;20200;-73
2023/12/12 01:12:16;;;;;;;1.87;0.67;;;;;;;7.07;100.00;100027.44;5019132;28;20567;-74
2023/12/12 01:14:44;;;;;;;1.83;0.70;;;;;;;7.06;99.88;100025.91;5021404;28;20529;-74
2023/12/12 01:17:10;;;;;;;2.93;0.70;;;;;;;7.06;100.00;100025.91;5018592;28;20216;-73
2023/12/12 01:19:36;;;;;;;2.17;0.80;;;;;;;7.04;100.00;100032.56;5006634;28;20200;-73
2023/12/12 01:22:03;;;;;;;4.70;1.00;;;;;;;7.03;100.00;100034.41;5018120;28;20229;-73
2023/12/12 01:24:30;;;;;;;2.30;1.40;;;;;;;7.01;99.68;100030.53;5021722;28;20600;-73
2023/12/12 01:26:56;;;;;;;2.20;0.70;;;;;;;7.00;99.78;100036.88;5018276;28;20673;-72
2023/12/12 01:29:23;;;;;;;1.27;0.80;;;;;;;7.00;99.81;100042.88;5020060;28;20595;-74
2023/12/12 01:31:50;;;;;;;3.73;0.73;;;;;;;7.00;99.83;100037.63;5018689;28;20420;-74
2023/12/12 01:34:17;;;;;;;3.17;1.00;;;;;;;7.00;100.00;100040.25;5021494;28;20209;-72
2023/12/12 01:36:44;;;;;;;2.70;0.80;;;;;;;6.99;100.00;100048.47;5022992;28;20224;-73
2023/12/12 01:39:10;;;;;;;1.20;0.80;;;;;;;6.98;100.00;100044.28;5019049;28;20717;-74
2023/12/12 01:41:36;;;;;;;1.50;0.90;;;;;;;6.97;99.62;100050.63;5023113;28;20188;-73
2023/12/12 01:44:03;;;;;;;1.17;0.93;;;;;;;6.97;100.00;100058.50;5004784;28;20707;-73
2023/12/12 01:46:32;;;;;;;1.40;0.80;;;;;;;6.97;99.82;100061.13;5017180;28;20299;-75
2023/12/12 01:49:00;;;;;;;3.23;1.10;;;;;;;6.95;100.00;100066.69;5019496;28;20224;-73
2023/12/12 01:51:26;;;;;;;2.07;0.70;;;;;;;6.95;100.00;100069.31;5022978;28;20212;-73
2023/12/12 01:53:53;;;;;;;1.33;0.87;;;;;;;6.94;100.00;100067.75;5022487;28;20760;-74
2023/12/12 01:56:20;;;;;;;1.80;0.90;;;;;;;6.94;100.00;100067.00;5020051;28;20310;-73
2023/12/12 01:58:50;;;;;;;2.60;1.53;;;;;;;6.95;99.99;100073.78;5021567;28;20267;-73
2023/12/12 02:01:17;;;;;;;4.40;1.10;;;;;;;6.93;100.00;100068.06;4999581;28;20200;-72
2023/12/12 02:03:44;;;;;;;2.13;1.10;;;;;;;6.92;100.00;100074.41;5001603;28;20682;-72
2023/12/12 02:06:14;;;;;;;2.53;1.03;;;;;;;6.92;100.00;100077.03;5017006;28;20686;-72
2023/12/12 02:08:41;;;;;;;1.23;0.97;;;;;;;6.93;100.00;100086.44;5019375;28;20216;-73
2023/12/12 02:11:08;;;;;;;1.23;1.13;;;;;;;6.93;100.00;100086.44;5003497;28;21140;-73
2023/12/12 02:13:35;;;;;;;1.63;1.40;;;;;;;6.92;100.00;100082.28;5018895;28;20216;-74
2023/12/12 02:16:01;;;;;;;1.47;1.20;;;;;;;6.92;100.00;100088.31;5017045;28;20698;-72
2023/12/12 02:18:27;;;;;;;2.80;1.10;;;;;;;6.92;100.00;100098.03;5016291;28;20292;-72
2023/12/12 02:20:54;;;;;;;2.33;1.20;;;;;;;6.93;100.00;100102.19;5016421;28;20196;-71
2023/12/12 02:23:21;;;;;;;1.40;1.23;;;;;;;6.92;100.00;100095.41;5021549;28;20456;-74
2023/12/12 02:25:48;;;;;;;3.07;1.37;;;;;;;6.90;100.00;100097.59;5017516;28;20192;-72
2023/12/12 02:28:14;;;;;;;1.20;1.03;;;;;;;6.92;100.00;100103.28;4999940;28;20641;-73
2023/12/12 02:30:42;;;;;;;2.03;1.40;;;;;;;6.88;100.00;100105.00;5020871;28;20201;-73
2023/12/12 02:33:09;;;;;;;3.37;1.37;;;;;;;6.89;100.00;100102.06;5017966;28;20688;-73
2023/12/12 02:35:35;;;;;;;3.67;1.50;;;;;;;6.90;100.00;100108.09;5017168;28;20686;-73
2023/12/12 02:38:01;;;;;;;2.43;1.47;;;;;;;6.88;100.00;100112.88;5017264;28;20722;-73
2023/12/12 02:40:29;;;;;;;2.67;1.33;;;;;;;6.86;100.00;100107.94;5020689;28;20208;-73
2023/12/12 02:42:55;;;;;;;2.80;1.50;;;;;;;6.84;100.00;100114.59;5020693;28;20195;-73
2023/12/12 02:45:22;;;;;;;3.40;1.60;;;;;;;6.84;100.00;100114.59;5019057;28;20207;-73
2023/12/12 02:47:48;;;;;;;1.57;1.30;;;;;;;6.80;100.00;100114.44;5019272;28;20224;-73
2023/12/12 02:50:14;;;;;;;3.30;1.70;;;;;;;6.78;100.00;100111.34;5017872;28;20205;-71
2023/12/12 02:52:41;;;;;;;3.77;1.53;;;;;;;6.75;100.00;100117.22;5022084;28;20208;-73
2023/12/12 02:55:08;;;;;;;3.13;1.87;;;;;;;6.74;100.00;100113.03;5018688;28;20201;-73
2023/12/12 02:57:36;;;;;;;4.33;1.70;;;;;;;6.72;100.00;100114.41;5015691;28;20242;-73
2023/12/12 03:00:03;;;;;;;3.80;1.70;;;;;;;6.70;100.00;100101.63;5017944;28;20208;-73
2023/12/12 03:02:29;;;;;;;4.40;1.93;;;;;;;6.69;100.00;100105.31;5002748;28;20282;-74
2023/12/12 03:04:55;;;;;;;2.90;1.57;;;;;;;6.66;100.00;100103.34;5018469;28;20279;-73
2023/12/12 03:07:22;;;;;;;5.20;1.90;;;;;;;6.64;100.00;100099.47;5016655;28;20220;-73
2023/12/12 03:09:49;;;;;;;6.83;1.83;;;;;;;6.64;100.00;100105.47;5018937;28;20376;-73
2023/12/12 03:12:15;;;;;;;3.47;1.80;;;;;;;6.63;100.00;100103.19;5019901;28;20196;-74
2023/12/12 03:14:43;;;;;;;3.27;1.80;;;;;;;6.63;100.00;100103.94;5018095;28;20203;-72
2023/12/12 03:17:09;;;;;;;4.27;1.93;;;;;;;6.61;100.00;100108.75;5032348;28;20204;-73
2023/12/12 03:19:36;;;;;;;3.37;1.87;;;;;;;6.62;100.00;100107.66;5035579;28;20225;-72
2023/12/12 03:22:02;;;;;;;5.07;2.00;;;;;;;6.62;100.00;100112.91;5031106;28;20211;-72
2023/12/12 03:24:28;;;;;;;2.63;1.90;;;;;;;6.62;100.00;100112.16;5029149;28;20188;-74
2023/12/12 03:26:55;;;;;;;3.07;1.80;;;;;;;6.64;100.00;100123.84;5026683;28;20214;-74
2023/12/12 03:29:21;;;;;;;5.87;2.23;;;;;;;6.64;100.00;100120.47;5033336;28;20220;-74
2023/12/12 03:31:49;;;;;;;3.93;1.90;;;;;;;6.64;100.00;100117.84;5034775;28;20205;-71
2023/12/12 03:34:15;;;;;;;5.20;2.37;;;;;;;6.64;100.00;100121.22;5015486;28;20227;-73
2023/12/12 03:36:42;;;;;;;3.43;2.20;;;;;;;6.65;100.00;100122.00;5036282;28;20198;-73
2023/12/12 03:39:09;;;;;;;3.97;2.10;;;;;;;6.64;100.00;100123.09;5032732;28;20221;-74
2023/12/12 03:41:35;;;;;;;4.07;1.87;;;;;;;6.63;100.00;100118.94;5031930;28;20203;-74
2023/12/12 03:44:01;;;;;;;4.70;2.10;;;;;;;6.63;100.00;100124.19;5016790;28;20210;-71
2023/12/12 03:46:28;;;;;;;6.97;1.90;;;;;;;6.63;100.00;100130.19;5033234;28;20201;-72
2023/12/12 03:48:55;;;;;;;2.07;1.43;;;;;;;6.59;100.00;100134.53;5027552;28;20231;-74
2023/12/12 03:51:23;;;;;;;5.03;2.00;;;;;;;6.59;100.00;100124.03;5030125;28;20195;-72
2023/12/12 03:53:50;;;;;;;3.00;1.63;;;;;;;6.55;100.00;100120.47;5007095;28;20223;-73
2023/12/12 03:56:16;;;;;;;3.17;1.47;;;;;;;6.56;100.00;100126.47;5025788;28;20201;-74
2023/12/12 03:58:42;;;;;;;4.47;1.77;;;;;;;6.54;100.00;100116.31;5022142;28;20211;-73
2023/12/12 04:01:09;;;;;;;5.67;1.80;;;;;;;6.54;100.00;100124.19;5021353;28;20201;-73
2023/12/12 04:03:35;;;;;;;5.47;1.73;;;;;;;6.52;100.00;100123.69;5020469;28;20191;-74
2023/12/12 04:06:04;;;;;;;2.33;1.50;;;;;;;6.50;100.00;100135.59;5023118;28;20204;-74
2023/12/12 04:08:30;;;;;;;2.23;1.70;;;;;;;6.50;100.00;100135.59;5023616;28;20251;-74
2023/12/12 04:10:56;;;;;;;1.57;1.33;;;;;;;6.48;100.00;100128.00;5020104;28;20207;-73
2023/12/12 04:13:23;;;;;;;6.57;1.80;;;;;;;6.47;100.00;100131.72;5005907;28;20208;-72
2023/12/12 04:15:49;;;;;;;2.80;1.83;;;;;;;6.47;100.00;100130.97;5024893;28;20266;-73
2023/12/12 04:18:15;;;;;;;3.70;1.87;;;;;;;6.46;100.00;100137.28;5007244;28;20428;-73
2023/12/12 04:20:42;;;;;;;3.37;1.47;;;;;;;6.46;100.00;100135.44;5022956;28;20204;-73
2023/12/12 04:23:10;;;;;;;2.57;1.70;;;;;;;6.47;100.00;100138.84;5021629;28;20203;-73
2023/12/12 04:25:36;;;;;;;3.03;1.67;;;;;;;6.46;100.00;100139.91;5024064;28;20717;-74
2023/12/12 04:28:02;;;;;;;1.70;1.23;;;;;;;6.44;100.00;100142.84;5007352;28;20219;-73
2023/12/12 04:30:29;;;;;;;3.10;1.40;;;;;;;6.47;100.00;100138.84;5022368;28;20208;-74
2023/12/12 04:32:55;;;;;;;4.50;1.87;;;;;;;6.45;100.00;100141.75;5022042;28;20204;-73
2023/12/12 04:35:21;;;;;;;2.90;1.40;;;;;;;6.45;100.00;100141.75;5019103;28;20199;-74
2023/12/12 04:37:48;;;;;;;2.00;1.50;;;;;;;6.45;100.00;100140.97;5025977;28;20226;-72
2023/12/12 04:40:16;;;;;;;3.33;1.70;;;;;;;6.47;100.00;100151.94;5021857;28;20212;-73
2023/12/12 04:42:42;;;;;;;4.07;1.50;;;;;;;6.47;100.00;100147.47;5021711;28;20584;-74
2023/12/12 04:45:09;;;;;;;3.87;1.53;;;;;;;6.46;100.00;100151.16;5015885;28;20192;-73
2023/12/12 04:47:35;;;;;;;3.97;1.60;;;;;;;6.46;100.00;100158.25;5015943;28;20222;-73
2023/12/12 04:50:02;;;;;;;2.57;1.30;;;;;;;6.44;100.00;100157.81;5019830;28;20202;-71
2023/12/12 04:52:28;;;;;;;1.90;1.13;;;;;;;6.42;100.00;100157.34;5022863;28;20202;-73
2023/12/12 04:54:55;;;;;;;1.83;1.30;;;;;;;6.39;100.00;100158.72;5017108;28;20224;-73
2023/12/12 04:57:22;;;;;;;4.43;1.50;;;;;;;6.37;100.00;100163.50;5022576;28;20203;-73
2023/12/12 04:59:49;;;;;;;2.27;1.13;;;;;;;6.36;100.00;100154.09;5023744;28;20207;-73
2023/12/12 05:02:15;;;;;;;1.90;1.20;;;;;;;6.35;100.00;100154.38;5021131;28;20210;-74
2023/12/12 05:04:41;;;;;;;1.57;1.30;;;;;;;6.35;100.00;100151.78;5022988;28;20199;-73
2023/12/12 05:07:08;;;;;;;1.63;1.10;;;;;;;6.33;100.00;100156.56;5017790;28;20196;-74
2023/12/12 05:09:34;;;;;;;1.20;0.80;;;;;;;6.32;100.00;100163.66;5021921;28;20207;-73
2023/12/12 05:12:00;;;;;;;2.03;0.80;;;;;;;6.32;100.00;100155.78;5015798;28;20204;-73
2023/12/12 05:14:28;;;;;;;2.67;0.90;;;;;;;6.29;100.00;100156.41;5020778;28;20215;-74
2023/12/12 05:16:55;;;;;;;3.97;1.00;;;;;;;6.29;100.00;100166.13;5019070;28;20219;-73
2023/12/12 05:19:21;;;;;;;2.50;1.00;;;;;;;6.27;100.00;100157.78;5006791;28;20216;-73
2023/12/12 05:21:47;;;;;;;4.40;1.10;;;;;;;6.24;100.00;100159.19;5023571;28;20219;-73
2023/12/12 05:24:14;;;;;;;2.33;1.07;;;;;;;6.23;100.00;100162.88;5003440;28;20597;-74
2023/12/12 05:26:40;;;;;;;1.27;0.77;;;;;;;6.23;100.00;100167.34;5019830;28;20207;-74
2023/12/12 05:29:06;;;;;;;1.73;1.17;;;;;;;6.20;100.00;100154.84;5019566;28;20215;-73
2023/12/12 05:31:34;;;;;;;1.50;1.00;;;;;;;6.15;100.00;100160.22;5018347;28;20204;-73
2023/12/12 05:34:00;;;;;;;2.13;1.03;;;;;;;6.12;100.00;100158.97;5017140;28;20216;-73
2023/12/12 05:36:27;;;;;;;1.23;1.00;;;;;;;6.06;100.00;100162.06;5002139;28;20223;-72
2023/12/12 05:38:53;;;;;;;4.57;1.40;;;;;;;6.00;100.00;100163.28;5018297;28;20219;-73
2023/12/12 05:41:20;;;;;;;1.63;1.20;;;;;;;5.93;100.00;100176.06;5006621;28;20208;-73
2023/12/12 05:43:46;;;;;;;0.80;0.80;;;;;;;5.84;100.00;100176.03;5007067;28;20216;-74
2023/12/12 05:46:13;;;;;;;2.27;0.83;;;;;;;5.79;100.00;100184.00;5018949;28;20218;-73
2023/12/12 05:48:41;;;;;;;3.43;1.00;;;;;;;5.73;100.00;100184.44;5021158;28;20240;-73
2023/12/12 05:51:07;;;;;;;2.33;1.13;;;;;;;5.67;100.00;100181.19;5020663;28;20200;-73
2023/12/12 05:53:34;;;;;;;3.37;1.17;;;;;;;5.65;100.00;100193.03;5018851;28;20208;-73
2023/12/12 05:56:00;;;;;;;1.23;0.90;;;;;;;5.63;100.00;100188.09;5005160;28;20227;-74
2023/12/12 05:58:26;;;;;;;4.83;1.33;;;;;;;5.60;100.00;100185.31;5018092;28;20220;-73
2023/12/12 06:00:53;;;;;;;2.97;1.20;;;;;;;5.59;100.00;100189.75;5019242;28;20203;-74
2023/12/12 06:03:19;;;;;;;2.80;1.50;;;;;;;5.61;100.00;100198.09;5018843;28;20204;-72
2023/12/12 06:05:47;;;;;;;3.23;1.37;;;;;;;5.62;100.00;100202.28;5014141;28;20738;-73
2023/12/12 06:08:13;;;;;;;2.23;1.20;;;;;;;5.63;100.00;100211.66;5020736;28;20215;-73
2023/12/12 06:10:40;;;;;;;4.57;1.20;;;;;;;5.64;100.00;100210.59;5024810;28;20207;-73
2023/12/12 06:13:06;;;;;;;1.93;1.00;;;;;;;5.66;100.00;100212.91;5016628;28;20204;-74
2023/12/12 06:15:33;;;;;;;1.97;1.03;;;;;;;5.66;100.00;100216.31;5023578;28;20215;-74
2023/12/12 06:17:59;;;;;;;1.60;1.20;;;;;;;5.69;100.00;100222.81;5025652;28;21052;-74
2023/12/12 06:20:26;;;;;;;3.13;1.27;;;;;;;5.71;100.00;100223.25;5023594;28;20832;-74
2023/12/12 06:22:54;;;;;;;2.47;1.83;;;;;;;5.72;100.00;100222.19;5021994;28;20659;-74
2023/12/12 06:25:21;;;;;;;2.63;1.13;;;;;;;5.74;100.00;100227.88;5018954;28;20184;-73
2023/12/12 06:27:47;;;;;;;1.10;1.00;;;;;;;5.74;100.00;100228.66;5026370;28;20587;-74
2023/12/12 06:30:14;;;;;;;3.80;1.43;;;;;;;5.75;100.00;100230.19;5007146;28;20204;-74
2023/12/12 06:32:40;;;;;;;5.03;1.30;;;;;;;5.77;100.00;100229.91;5005265;28;20204;-73
2023/12/12 06:35:07;;;;;;;2.73;1.50;;;;;;;5.77;100.00;100235.16;5024958;28;20219;-73
2023/12/12 06:37:33;;;;;;;3.53;1.37;;;;;;;5.77;100.00;100235.16;5022194;28;20223;-73
2023/12/12 06:40:03;;;;;;;1.93;1.30;;;;;;;5.75;100.00;100230.19;5023002;28;20865;-73
2023/12/12 06:42:29;;;;;;;2.80;1.20;;;;;;;5.75;100.00;100240.69;5018842;28;20199;-72
2023/12/12 06:44:56;;;;;;;3.13;1.20;;;;;;;5.74;100.00;100239.13;5022418;28;20196;-74
2023/12/12 06:47:23;;;;;;;2.27;1.10;;;;;;;5.74;100.00;100238.34;5007688;28;20224;-73
2023/12/12 06:49:49;;;;;;;4.00;1.33;;;;;;;5.72;100.00;100236.06;5022132;28;20635;-71
2023/12/12 06:52:16;;;;;;;2.30;1.20;;;;;;;5.72;100.00;100235.28;5020776;28;20204;-73
2023/12/12 06:54:42;;;;;;;5.87;1.70;;;;;;;5.72;100.00;100243.13;5023332;28;20798;-74
2023/12/12 06:57:10;;;;;;;1.67;1.20;;;;;;;5.71;100.00;100244.22;5025446;28;20574;-74
2023/12/12 06:59:37;;;;;;;4.20;1.37;;;;;;;5.69;100.00;100241.88;5020145;28;20267;-73
2023/12/12 07:02:03;;;;;;;2.23;1.40;;;;;;;5.69;100.00;100246.38;5020910;28;20199;-73
2023/12/12 07:04:30;;;;;;;7.97;1.60;;;;;;;5.69;100.00;100249.00;5023234;28;20188;-73
2023/12/12 07:06:56;;;;;;;5.20;1.10;;;;;;;5.70;100.00;100245.28;5021611;28;20673;-74
2023/12/12 07:09:22;;;;;;;2.07;1.30;;;;;;;5.69;100.00;100247.13;5019198;28;20873;-74
2023/12/12 07:11:49;;;;;;;1.57;1.23;;;;;;;5.71;100.00;100250.25;5006040;28;20220;-72
2023/12/12 07:14:16;;;;;;;3.90;1.53;;;;;;;5.71;100.00;100255.47;5021661;28;20758;-74
2023/12/12 07:16:43;;;;;;;1.40;1.27;;;;;;;5.72;100.00;100253.63;5023370;28;20203;-73
2023/12/12 07:19:09;;;;;;;2.13;1.00;;;;;;;5.73;100.00;100253.31;5005523;28;20227;-72
2023/12/12 07:21:40;;;;;;;5.20;1.33;;;;;;;5.75;100.00;100251.16;5024628;28;20199;-71
2023/12/12 07:24:06;;;;;;;1.47;1.30;;;;;;;5.77;100.00;100254.28;5024111;28;20627;-74
2023/12/12 07:26:33;;;;;;;4.33;1.23;;;;;;;5.80;100.00;100250.31;5019469;28;20199;-75
2023/12/12 07:28:59;;;;;;;2.13;1.13;;;;;;;5.83;100.00;100255.72;5021190;28;20216;-73
2023/12/12 07:31:27;;;;;;;2.73;1.50;;;;;;;5.85;100.00;100252.78;5005086;28;20211;-75
2023/12/12 07:33:53;;;;;;;3.23;1.30;;;;;;;5.88;100.00;100255.56;5022145;28;20208;-74
2023/12/12 07:36:20;;;;;;;3.80;1.43;;;;;;;5.90;100.00;100255.28;5019723;28;20314;-74
2023/12/12 07:38:47;;;;;;;9.33;1.97;;;;;;;5.93;100.00;100247.59;5021951;28;20244;-75
2023/12/12 07:41:15;;;;;;;4.07;1.67;;;;;;;5.95;100.00;100258.53;5023493;28;20196;-75
2023/12/12 07:43:41;;;;;;;2.93;1.67;;;;;;;5.97;100.00;100263.47;5024471;28;20669;-75
2023/12/12 07:46:07;;;;;;;3.20;1.30;;;;;;;5.98;100.00;100268.41;5019933;28;20200;-75
2023/12/12 07:48:35;;;;;;;4.83;1.47;;;;;;;5.98;100.00;100260.56;5023105;28;20216;-74
2023/12/12 07:51:02;;;;;;;5.00;1.57;;;;;;;5.96;100.00;100256.69;5020637;28;20200;-73
2023/12/12 07:53:28;;;;;;;3.33;1.10;;;;;;;5.96;100.00;100254.81;5007475;28;20211;-75
2023/12/12 07:55:54;;;;;;;4.93;1.40;;;;;;;5.94;100.00;100262.22;5028313;28;20594;-73
2023/12/12 07:58:20;;;;;;;4.37;1.50;;;;;;;5.94;100.00;100262.22;5026791;28;20216;-75
2023/12/12 08:00:47;;;;;;;4.03;1.47;;;;;;;5.95;100.00;100263.78;5002920;28;20200;-75
2023/12/12 08:03:14;;;;;;;2.30;1.07;;;;;;;5.97;100.00;100264.25;5021561;28;20578;-75
2023/12/12 08:05:43;;;;;;;2.57;1.27;;;;;;;5.99;100.00;100264.72;5021490;28;20199;-75
2023/12/12 08:08:10;;;;;;;2.80;1.33;;;;;;;6.00;100.00;100263.63;5003429;28;20708;-74
2023/12/12 08:10:36;;;;;;;1.77;1.37;;;;;;;6.03;100.00;100267.50;5023283;28;20668;-75
2023/12/12 08:13:03;;;;;;;3.33;1.33;;;;;;;6.07;100.00;100263.22;5023471;28;20201;-75
2023/12/12 08:15:29;;;;;;;5.63;1.43;;;;;;;6.11;100.00;100266.78;5007890;28;20269;-74
2023/12/12 08:17:56;;;;;;;2.03;1.20;;;;;;;6.14;100.00;100266.94;5005261;28;20243;-75
2023/12/12 08:20:22;;;;;;;4.17;1.50;;;;;;;6.18;100.00;100270.50;5025246;28;20258;-75
2023/12/12 08:22:50;;;;;;;1.83;1.03;;;;;;;6.22;100.00;100271.41;5024828;28;20203;-74
2023/12/12 08:25:16;;;;;;;2.83;1.40;;;;;;;6.27;100.00;100281.03;5025871;28;20191;-75
2023/12/12 08:27:42;;;;;;;1.87;1.20;;;;;;;6.31;100.00;100266.97;5024120;28;20436;-74
2023/12/12 08:30:10;;;;;;;2.70;1.23;;;;;;;6.36;100.00;100273.94;5026008;28;20196;-73
2023/12/12 08:32:37;;;;;;;2.60;1.30;;;;;;;6.39;100.00;100274.13;5028342;28;20200;-74
2023/12/12 08:35:05;;;;;;;2.67;1.20;;;;;;;6.45;100.00;100272.09;5028163;28;20227;-75
2023/12/12 08:37:31;;;;;;;2.67;1.07;;;;;;;6.49;100.00;100278.28;5009018;28;20223;-75
2023/12/12 08:40:00;;;;;;;2.70;1.10;;;;;;;6.53;100.00;100274.75;5028113;28;20200;-75
2023/12/12 08:42:26;;;;;;;1.63;1.23;;;;;;;6.58;100.00;100276.47;5006926;28;20228;-73
2023/12/12 08:44:53;;;;;;;3.17;1.23;;;;;;;6.64;100.00;100280.50;5022052;28;20188;-72
2023/12/12 08:47:19;;;;;;;2.77;1.07;;;;;;;6.71;100.00;100272.94;5028450;28;20666;-75
2023/12/12 08:49:45;;;;;;;1.63;1.00;;;;;;;6.80;100.00;100268.47;5026839;28;20215;-70
2023/12/12 08:52:12;;;;;;;3.40;1.10;;;;;;;6.86;100.00;100270.66;5025474;28;20191;-73
2023/12/12 08:54:38;;;;;;;3.37;1.63;;;;;;;6.99;100.00;100282.09;5021514;28;20229;-73
2023/12/12 08:57:06;;;;;;;1.80;0.90;;;;;;;7.07;98.89;100274.22;5023877;28;20204;-73
2023/12/12 08:59:32;;;;;;;2.93;1.47;;;;;;;7.11;99.28;100264.63;5026889;28;20754;-73
2023/12/12 09:01:59;;;;;;;3.43;2.00;;;;;;;7.18;97.48;100274.66;5026096;28;20195;-73
2023/12/12 09:04:25;;;;;;;5.60;2.50;;;;;;;7.22;96.60;100275.59;5025495;28;20333;-73
2023/12/12 09:06:52;;;;;;;1.50;1.27;;;;;;;7.23;96.89;100283.16;5025150;28;20203;-73
2023/12/12 09:09:18;;;;;;;1.57;1.00;;;;;;;7.26;96.20;100276.50;5020037;28;20388;-72
2023/12/12 09:11:46;;;;;;;1.80;1.43;;;;;;;7.28;97.63;100287.47;5010002;28;20212;-75
2023/12/12 09:14:14;;;;;;;2.90;0.90;;;;;;;7.27;96.49;100278.84;5023041;28;20194;-72
2023/12/12 09:16:40;;;;;;;0.80;0.80;;;;;;;7.30;96.54;100287.94;5017921;28;20195;-72
2023/12/12 09:19:08;;;;;;;2.47;0.80;;;;;;;7.30;94.88;100287.94;5023347;28;20208;-72
2023/12/12 09:21:35;;;;;;;2.80;1.00;;;;;;;7.28;93.94;100285.63;5023752;28;20209;-73
2023/12/12 09:24:01;;;;;;;2.80;1.10;;;;;;;7.30;93.32;100295.81;5026315;28;20197;-72
2023/12/12 09:26:28;;;;;;;1.87;1.10;;;;;;;7.28;93.80;100288.25;5024887;28;20206;-73
2023/12/12 09:28:54;;;;;;;4.73;2.20;;;;;;;7.26;93.01;100284.41;5017655;28;20241;-71
2023/12/12 09:31:27;;;;;;;4.10;1.30;;;;;;;7.25;93.90;100286.22;5024442;28;20202;-73
2023/12/12 09:33:53;;;;;;;1.23;1.10;;;;;;;7.21;92.26;100284.53;5020158;28;20192;-73
2023/12/12 09:36:20;;;;;;;1.63;0.83;;;;;;;7.18;95.14;100288.56;5018880;28;20224;-71
2023/12/12 09:38:46;;;;;;;2.10;1.50;;;;;;;7.16;93.16;100292.59;5006682;28;20323;-72
2023/12/12 09:41:17;;;;;;;1.57;1.00;;;;;;;7.13;93.10;100285.31;5006937;28;20222;-72
2023/12/12 09:43:45;;;;;;;3.60;1.27;;;;;;;7.12;94.00;100286.41;5024472;28;20192;-73
2023/12/12 09:46:12;;;;;;;2.57;1.53;;;;;;;7.12;95.01;100291.66;5019255;28;20667;-72
2023/12/12 09:48:40;;;;;;;1.53;1.07;;;;;;;7.09;94.17;100285.16;5025986;28;20791;-73
2023/12/12 09:51:08;;;;;;;5.13;1.27;;;;;;;7.08;93.99;100280.22;5019831;28;20576;-71
2023/12/12 09:53:35;;;;;;;2.97;1.47;;;;;;;7.10;93.46;100285.94;5022781;28;20202;-73
2023/12/12 09:56:03;;;;;;;1.40;1.00;;;;;;;7.12;94.61;100281.16;5024049;28;20426;-72
2023/12/12 09:58:29;;;;;;;2.30;1.07;;;;;;;7.15;93.91;100283.16;5021054;28;20228;-72
2023/12/12 10:00:57;;;;;;;2.00;0.87;;;;;;;7.18;95.49;100278.06;5022029;28;20287;-72
2023/12/12 10:03:24;;;;;;;2.17;0.90;;;;;;;7.24;94.49;100278.66;5017674;28;20208;-72
2023/12/12 10:05:54;;;;;;;3.63;1.17;;;;;;;7.29;93.59;100283.75;5021774;28;20633;-72
2023/12/12 10:08:21;;;;;;;2.70;1.00;;;;;;;7.34;92.38;100270.47;5020189;28;20596;-73
2023/12/12 10:10:52;;;;;;;3.67;1.10;;;;;;;7.39;92.49;100276.34;5007322;28;20226;-74
2023/12/12 10:13:18;;;;;;;2.07;1.10;;;;;;;7.44;92.34;100267.50;5020164;28;20207;-74
2023/12/12 10:15:45;;;;;;;2.73;1.00;;;;;;;7.48;93.46;100277.13;5022731;28;20577;-74
2023/12/12 10:18:11;;;;;;;1.57;1.20;;;;;;;7.54;92.64;100267.19;5022327;28;20220;-74
2023/12/12 10:20:37;;;;;;;1.87;1.40;;;;;;;7.57;92.82;100267.34;5021992;28;20193;-74
2023/12/12 10:23:05;;;;;;;1.67;1.03;;;;;;;7.62;92.80;100272.44;5019104;28;20210;-73
2023/12/12 10:25:33;;;;;;;5.23;4.50;;;;;;;7.65;92.05;100271.81;5006787;28;20197;-74
2023/12/12 10:28:00;;;;;;;1.33;1.13;;;;;;;7.70;90.06;100262.97;5024387;28;20238;-73
2023/12/12 10:30:27;;;;;;;4.83;1.27;;;;;;;7.73;90.15;100260.53;5023871;28;20199;-74
2023/12/12 10:32:54;;;;;;;5.47;1.60;;;;;;;7.75;90.81;100263.59;5020375;28;20252;-71
2023/12/12 10:35:22;;;;;;;1.47;1.20;;;;;;;7.80;91.55;100270.53;5022316;28;20211;-74
2023/12/12 10:37:49;;;;;;;2.57;1.20;;;;;;;7.85;92.21;100263.25;5020578;28;20215;-74
2023/12/12 10:40:19;;;;;;;4.07;0.97;;;;;;;7.87;90.49;100270.84;5007462;28;20819;-74
2023/12/12 10:42:45;;;;;;;1.13;0.80;;;;;;;7.90;85.87;100257.81;5027290;28;20193;-74
2023/12/12 10:45:13;;;;;;;1.50;0.80;;;;;;;7.93;87.48;100259.06;5027153;28;20195;-74
2023/12/12 10:47:45;;;;;;;1.90;1.17;;;;;;;7.94;88.15;100261.38;5019776;28;20225;-71
2023/12/12 10:50:14;;;;;;;3.80;1.97;;;;;;;7.95;85.02;100260.28;4995914;28;20679;-74
2023/12/12 10:52:42;;;;;;;4.30;1.93;;;;;;;7.96;85.48;100258.41;5025653;28;20653;-73
2023/12/12 10:55:10;;;;;;;2.57;1.43;;;;;;;7.93;85.57;100259.81;5022934;28;20232;-73
2023/12/12 10:57:41;;;;;;;5.53;2.50;;;;;;;7.92;86.63;100257.53;5019659;28;20228;-74
2023/12/12 11:00:12;;;;;;;4.20;2.40;;;;;;;7.92;87.54;100255.66;5025157;28;20622;-74
2023/12/12 11:02:39;;;;;;;1.50;1.20;;;;;;;7.91;86.34;100248.06;5025096;28;20205;-74
2023/12/12 11:05:08;;;;;;;1.50;1.10;;;;;;;7.90;88.32;100252.56;5025231;28;20221;-74
2023/12/12 11:07:36;;;;;;;4.73;2.03;;;;;;;7.91;87.68;100240.97;5020021;28;20216;-74
2023/12/12 11:10:06;;;;;;;5.40;2.70;;;;;;;7.94;88.78;100248.22;5022837;28;20718;-74
2023/12/12 11:12:34;;;;;;;2.20;1.40;;;;;;;7.95;88.47;100241.88;5020876;28;20231;-73
2023/12/12 11:15:04;;;;;;;1.43;0.80;;;;;;;7.98;89.71;100240.47;5027888;28;20206;-74
2023/12/12 11:17:31;;;;;;;2.23;1.23;;;;;;;7.99;89.40;100240.16;5028730;28;20222;-73
2023/12/12 11:19:57;;;;;;;2.07;0.90;;;;;;;7.98;88.74;100232.59;5035360;28;20208;-73
2023/12/12 11:22:39;;;;;;;1.53;1.17;;;;;;;7.95;88.42;100231.38;5038850;28;20198;-72
2023/12/12 11:25:08;;;;;;;1.70;1.00;;;;;;;7.92;88.24;100224.09;5037789;28;20228;-73
2023/12/12 11:27:36;;;;;;;1.30;1.10;;;;;;;7.91;88.51;100224.41;5035387;28;20470;-71